Time;durP1;ratioP1;P1;durP2;ratioP2;P2;SDS_P1;SDS_P2;PMS_P1;PMS_P2;Temp;Humidity;BMP_temperature;BMP_pressure;BME280_temperature;BME280_humidity;BME280_pressure;Samples;Min_cycle;Max_cycle;Signal;HPM_P1;HPM_P2
2022/01/01 00:00:10;;;;;;;39.18;21.23;;;;;;;10.23;100.00;100561.23;1729401;80;27433;-71
2022/01/01 00:02:37;;;;;;;34.83;17.85;;;;;;;10.25;100.00;100564.25;1778045;78;99540;-71
2022/01/01 00:05:07;;;;;;;23.02;14.83;;;;;;;10.21;100.00;100549.25;1774886;78;25745;-72
2022/01/01 00:07:35;;;;;;;22.98;12.58;;;;;;;10.19;100.00;100556.44;1759698;78;99290;-72
2022/01/01 00:10:02;;;;;;;22.37;13.05;;;;;;;10.19;100.00;100553.77;1746250;80;25941;-72
2022/01/01 00:12:30;;;;;;;22.40;11.60;;;;;;;10.20;100.00;100575.63;1741670;80;99363;-71
2022/01/01 00:14:58;;;;;;;27.13;13.32;;;;;;;10.18;100.00;100571.24;1788581;78;25792;-72
2022/01/01 00:17:26;;;;;;;21.40;11.20;;;;;;;10.17;100.00;100577.53;1787325;78;25728;-71
2022/01/01 00:19:55;;;;;;;20.77;9.95;;;;;;;10.13;100.00;100580.81;1783881;78;99227;-71
2022/01/01 00:22:22;;;;;;;20.52;9.95;;;;;;;10.15;100.00;100579.41;1745482;80;25871;-70
2022/01/01 00:24:48;;;;;;;25.10;10.65;;;;;;;10.15;100.00;100582.09;1780964;78;99306;-70
2022/01/01 00:27:14;;;;;;;16.90;9.83;;;;;;;10.13;100.00;100595.55;1786591;78;25877;-70
2022/01/01 00:29:44;;;;;;;19.17;9.78;;;;;;;10.13;100.00;100596.88;1783766;78;25830;-70
2022/01/01 00:32:09;;;;;;;18.40;10.13;;;;;;;10.14;100.00;100601.77;1780819;78;99093;-71
2022/01/01 00:34:35;;;;;;;14.93;9.05;;;;;;;10.11;100.00;100605.45;1786781;78;25872;-70
2022/01/01 00:37:06;;;;;;;14.10;8.85;;;;;;;10.12;100.00;100603.64;1786916;78;99229;-70
2022/01/01 00:39:34;;;;;;;14.80;8.45;;;;;;;10.12;100.00;100606.32;1750248;80;26998;-70
2022/01/01 00:42:03;;;;;;;15.43;9.48;;;;;;;10.12;100.00;100607.66;1727413;81;25975;-70
2022/01/01 00:44:32;;;;;;;15.98;9.63;;;;;;;10.12;100.00;100609.87;1717640;81;99220;-71
2022/01/01 00:46:58;;;;;;;19.30;7.87;;;;;;;10.12;100.00;100616.56;1754517;79;25285;-72
2022/01/01 00:49:26;;;;;;;14.20;7.75;;;;;;;10.14;100.00;100609.80;1751714;80;99007;-71
2022/01/01 00:51:53;;;;;;;12.95;7.70;;;;;;;10.15;100.00;100612.89;1758026;80;25898;-72
2022/01/01 00:54:21;;;;;;;19.37;6.55;;;;;;;10.16;100.00;100620.86;1755079;80;36311;-72
2022/01/01 00:56:48;;;;;;;13.03;7.25;;;;;;;10.19;100.00;100614.50;1728483;79;99068;-72
2022/01/01 00:59:17;;;;;;;23.15;12.88;;;;;;;10.19;100.00;100617.17;1751789;80;25897;-72
2022/01/01 01:01:44;;;;;;;15.13;6.87;;;;;;;10.17;100.00;100624.41;1737018;81;99180;-73
2022/01/01 01:04:13;;;;;;;10.75;5.37;;;;;;;10.17;100.00;100637.80;1751254;80;25851;-73
2022/01/01 01:06:40;;;;;;;7.97;5.33;;;;;;;10.15;100.00;100623.13;1749304;80;99129;-72
2022/01/01 01:09:09;;;;;;;13.75;5.92;;;;;;;10.11;100.00;100630.02;1753378;79;26683;-73
2022/01/01 01:11:41;;;;;;;13.22;6.40;;;;;;;10.13;100.00;100621.45;1750387;80;25851;-72
2022/01/01 01:14:08;;;;;;;8.98;5.40;;;;;;;10.11;100.00;100621.98;1749204;80;99170;-72
2022/01/01 01:16:33;;;;;;;11.33;6.00;;;;;;;10.11;100.00;100650.11;1751840;80;30517;-73
2022/01/01 01:18:59;;;;;;;10.00;5.83;;;;;;;10.10;100.00;100647.89;1749566;80;99253;-73
2022/01/01 01:21:28;;;;;;;12.33;6.28;;;;;;;10.11;100.00;100652.78;1755753;80;26549;-72
2022/01/01 01:23:56;;;;;;;19.02;7.28;;;;;;;10.11;100.00;100642.07;1748854;80;25780;-73
2022/01/01 01:26:23;;;;;;;13.45;6.87;;;;;;;10.09;100.00;100648.36;1757066;79;98982;-72
2022/01/01 01:28:51;;;;;;;11.63;6.25;;;;;;;10.07;100.00;100643.53;1755558;79;26909;-72
2022/01/01 01:31:20;;;;;;;13.55;6.62;;;;;;;10.07;100.00;100649.36;1753679;80;99065;-72
2022/01/01 01:33:50;;;;;;;9.58;5.40;;;;;;;10.07;100.00;100638.18;1758909;80;25798;-72
2022/01/01 01:36:19;;;;;;;12.45;6.72;;;;;;;10.08;100.00;100645.75;1752581;79;26756;-72
2022/01/01 01:38:45;;;;;;;11.73;6.22;;;;;;;10.07;100.00;100646.69;1749047;79;98834;-72
2022/01/01 01:41:11;;;;;;;11.93;5.87;;;;;;;10.07;100.00;100648.89;1785289;78;26605;-72
2022/01/01 01:43:38;;;;;;;9.53;5.22;;;;;;;10.08;100.00;100647.09;1787665;78;98978;-73
2022/01/01 01:46:05;;;;;;;12.15;5.17;;;;;;;10.09;100.00;100651.04;1782723;78;25985;-73
2022/01/01 01:48:34;;;;;;;10.53;5.75;;;;;;;10.12;100.00;100649.17;1785754;78;99232;-72
2022/01/01 01:51:01;;;;;;;8.55;4.92;;;;;;;10.09;100.00;100653.72;1784453;78;28484;-73
2022/01/01 01:53:29;;;;;;;7.75;5.08;;;;;;;10.09;100.00;100657.73;1790358;78;25989;-73
2022/01/01 01:56:00;;;;;;;11.22;5.87;;;;;;;10.13;100.00;100657.61;1782849;78;98889;-73
2022/01/01 01:58:30;;;;;;;7.62;4.58;;;;;;;10.16;100.00;100664.18;1776426;78;26661;-72
2022/01/01 02:01:20;;;;;;;8.78;4.87;;;;;;;10.16;100.00;100666.39;1783922;78;99099;-72
2022/01/01 02:03:36;;;;;;;10.20;5.28;;;;;;;10.17;100.00;100672.62;1786332;78;28067;-72
2022/01/01 02:06:11;;;;;;;11.12;5.17;;;;;;;10.19;100.00;100670.75;1787183;78;26034;-72
2022/01/01 02:08:38;;;;;;;11.18;5.17;;;;;;;10.17;100.00;100672.62;1777851;78;99061;-73
2022/01/01 02:11:05;;;;;;;11.25;5.97;;;;;;;10.14;100.00;100679.44;1788025;78;25789;-73
2022/01/01 02:13:38;;;;;;;9.88;5.12;;;;;;;10.14;100.00;100680.78;1786284;78;99078;-74
2022/01/01 02:16:32;;;;;;;11.00;5.78;;;;;;;10.15;100.00;100686.08;1781427;78;27452;-73
2022/01/01 02:18:46;;;;;;;13.78;6.20;;;;;;;10.10;100.00;100688.06;1774198;78;99196;-71
2022/01/01 02:21:15;;;;;;;15.93;5.65;;;;;;;10.06;100.00;100704.73;1780670;78;25767;-72
2022/01/01 02:23:44;;;;;;;12.13;5.85;;;;;;;10.05;100.00;100696.75;1747671;80;25800;-73
2022/01/01 02:26:15;;;;;;;11.53;5.28;;;;;;;10.03;100.00;100699.49;1787160;78;99006;-72
2022/01/01 02:28:45;;;;;;;11.28;5.42;;;;;;;10.02;100.00;100699.55;1784472;78;27440;-72
2022/01/01 02:31:14;;;;;;;9.80;5.47;;;;;;;10.00;100.00;100708.98;1749933;80;99146;-72
2022/01/01 02:33:43;;;;;;;12.88;5.40;;;;;;;10.01;100.00;100714.75;1753049;80;26459;-73
2022/01/01 02:36:10;;;;;;;14.13;6.00;;;;;;;10.00;100.00;100718.36;1741492;80;25775;-72
2022/01/01 02:38:37;;;;;;;13.20;4.67;;;;;;;10.01;100.00;100711.20;1782789;78;99145;-71
2022/01/01 02:41:05;;;;;;;13.48;5.25;;;;;;;10.00;100.00;100721.50;1782035;78;27464;-72
2022/01/01 02:43:36;;;;;;;13.62;5.53;;;;;;;10.01;100.00;100721.91;1781517;78;99049;-71
2022/01/01 02:46:02;;;;;;;14.03;6.03;;;;;;;10.01;100.00;100724.59;1782263;78;25724;-71
2022/01/01 02:48:28;;;;;;;12.95;5.97;;;;;;;10.00;100.00;100717.02;1780207;78;99238;-71
2022/01/01 02:50:54;;;;;;;12.35;6.03;;;;;;;10.00;100.00;100721.50;1782441;78;26329;-72
2022/01/01 02:53:21;;;;;;;9.30;5.40;;;;;;;10.01;100.00;100721.91;1745366;80;25820;-72
2022/01/01 02:55:49;;;;;;;13.48;5.95;;;;;;;9.99;100.00;100725.98;1738824;80;98905;-73
2022/01/01 02:58:15;;;;;;;10.23;4.85;;;;;;;9.99;100.00;100724.65;1740391;81;25840;-73
2022/01/01 03:00:41;;;;;;;10.43;5.00;;;;;;;9.98;100.00;100729.59;1703394;82;99161;-72
2022/01/01 03:03:06;;;;;;;8.35;4.33;;;;;;;9.99;100.00;100734.48;1746503;81;25744;-74
2022/01/01 03:05:33;;;;;;;9.23;4.45;;;;;;;9.99;100.00;100732.69;1752644;80;29568;-73
2022/01/01 03:07:59;;;;;;;10.85;4.70;;;;;;;9.99;100.00;100739.38;1745520;80;98765;-72
2022/01/01 03:10:25;;;;;;;10.80;4.55;;;;;;;9.99;100.00;100742.52;1741577;80;25788;-73
2022/01/01 03:12:52;;;;;;;8.08;3.90;;;;;;;10.02;100.00;100746.42;1709635;82;99053;-72
2022/01/01 03:15:18;;;;;;;7.28;4.17;;;;;;;10.02;100.00;100740.59;1748117;80;26393;-73
2022/01/01 03:17:45;;;;;;;10.78;4.25;;;;;;;10.02;100.00;100737.92;1753568;80;27419;-72
2022/01/01 03:20:12;;;;;;;12.88;4.28;;;;;;;10.04;100.00;100745.89;1749986;80;99107;-73
2022/01/01 03:22:38;;;;;;;8.33;3.95;;;;;;;10.04;100.00;100745.42;1748129;80;25700;-72
2022/01/01 03:25:04;;;;;;;9.08;4.30;;;;;;;10.05;100.00;100755.20;1751381;80;99094;-72
2022/01/01 03:27:30;;;;;;;9.25;4.60;;;;;;;10.06;100.00;100742.69;1755988;80;25770;-73
2022/01/01 03:29:57;;;;;;;9.03;4.17;;;;;;;10.04;100.00;100745.42;1747735;80;27459;-73
2022/01/01 03:32:23;;;;;;;8.28;4.45;;;;;;;10.05;100.00;100748.51;1747467;80;98866;-72
2022/01/01 03:34:52;;;;;;;11.90;4.87;;;;;;;10.04;100.00;100758.81;1749716;80;26206;-73
2022/01/01 03:37:19;;;;;;;9.73;5.37;;;;;;;10.03;100.00;100744.14;1750765;79;99194;-73
2022/01/01 03:39:48;;;;;;;13.93;4.97;;;;;;;10.04;100.00;100755.27;1748284;80;25751;-73
2022/01/01 03:42:17;;;;;;;11.63;4.90;;;;;;;10.06;100.00;100748.91;1741297;80;27344;-74
2022/01/01 03:44:42;;;;;;;8.13;4.67;;;;;;;10.03;100.00;100753.05;1750054;80;98953;-73
2022/01/01 03:47:11;;;;;;;9.40;3.92;;;;;;;10.01;100.00;100752.24;1752678;80;25888;-72
2022/01/01 03:49:39;;;;;;;8.80;4.30;;;;;;;10.02;100.00;100755.79;1789031;78;98834;-72
2022/01/01 03:52:06;;;;;;;11.38;5.60;;;;;;;10.03;100.00;100750.84;1791549;78;26354;-73
2022/01/01 03:54:32;;;;;;;10.80;4.85;;;;;;;10.04;100.00;100756.60;1789059;78;99178;-71
2022/01/01 03:56:59;;;;;;;12.58;4.65;;;;;;;10.05;100.00;100760.56;1749349;80;25758;-72
2022/01/01 03:59:28;;;;;;;9.08;4.90;;;;;;;10.03;100.00;100755.73;1750342;80;26637;-72
2022/01/01 04:01:57;;;;;;;11.08;4.80;;;;;;;10.00;100.00;100763.88;1746195;80;98925;-72
2022/01/01 04:04:25;;;;;;;10.28;4.17;;;;;;;9.99;100.00;100772.84;1747226;80;25681;-73
2022/01/01 04:06:54;;;;;;;11.38;4.62;;;;;;;9.99;100.00;100772.84;1754504;80;99133;-72
2022/01/01 04:09:20;;;;;;;13.28;4.67;;;;;;;9.99;100.00;100766.63;1720607;82;26222;-73
2022/01/01 04:11:51;;;;;;;11.73;4.62;;;;;;;9.99;100.00;100766.16;1684205;83;25880;-73
2022/01/01 04:14:17;;;;;;;14.53;5.17;;;;;;;10.00;100.00;100779.95;1731099;80;99053;-73
2022/01/01 04:16:46;;;;;;;15.23;5.37;;;;;;;10.01;100.00;100776.34;1745756;80;25757;-72
2022/01/01 04:19:13;;;;;;;11.68;5.60;;;;;;;10.01;100.00;100792.41;1736686;80;99191;-72
2022/01/01 04:21:38;;;;;;;15.10;6.42;;;;;;;10.04;100.00;100788.27;1735534;81;25850;-74
2022/01/01 04:24:06;;;;;;;13.53;5.20;;;;;;;10.03;100.00;100789.20;1743663;81;25824;-72
2022/01/01 04:26:33;;;;;;;16.07;5.37;;;;;;;10.02;100.00;100792.81;1694280;81;99187;-72
2022/01/01 04:29:02;;;;;;;9.60;5.55;;;;;;;10.02;100.00;100794.16;1754167;80;25786;-73
2022/01/01 04:31:29;;;;;;;15.30;6.25;;;;;;;10.03;100.00;100794.56;1753045;80;98976;-72
2022/01/01 04:33:57;;;;;;;13.48;5.65;;;;;;;10.03;100.00;100794.56;1739918;80;25912;-73
2022/01/01 04:36:23;;;;;;;14.30;5.95;;;;;;;10.02;100.00;100788.80;1753586;80;26359;-73
2022/01/01 04:38:51;;;;;;;13.20;5.70;;;;;;;10.03;100.00;100789.67;1746210;81;98995;-73
2022/01/01 04:41:20;;;;;;;13.43;5.90;;;;;;;10.01;100.00;100807.14;1744152;80;25695;-73
2022/01/01 04:43:47;;;;;;;11.33;5.62;;;;;;;10.00;100.00;100801.38;1725408;81;99171;-74
2022/01/01 04:46:13;;;;;;;13.60;5.65;;;;;;;10.00;100.00;100804.05;1742390;81;25711;-72
2022/01/01 04:48:40;;;;;;;14.65;5.60;;;;;;;10.02;100.00;100802.19;1748261;79;99268;-72
2022/01/01 04:51:10;;;;;;;9.85;4.85;;;;;;;10.01;100.00;100806.27;1776764;78;25774;-72
2022/01/01 04:53:44;;;;;;;12.63;5.58;;;;;;;10.02;100.00;100831.64;1775637;79;25796;-73
2022/01/01 04:56:09;;;;;;;15.93;6.05;;;;;;;10.02;100.00;100812.90;1758715;79;99099;-72
2022/01/01 04:58:37;;;;;;;12.98;5.10;;;;;;;10.05;100.00;100818.60;1753479;79;26251;-72
2022/01/01 05:01:03;;;;;;;10.90;5.55;;;;;;;10.08;100.00;100803.75;1753103;79;99162;-72
2022/01/01 05:03:31;;;;;;;12.73;6.33;;;;;;;10.06;100.00;100810.52;1724138;80;26666;-72
2022/01/01 05:06:00;;;;;;;11.97;5.70;;;;;;;10.05;100.00;100812.78;1753899;80;25708;-72
2022/01/01 05:08:26;;;;;;;13.95;6.28;;;;;;;10.07;100.00;100820.76;1773484;79;99134;-72
2022/01/01 05:10:52;;;;;;;11.12;5.50;;;;;;;10.07;100.00;100806.90;1774822;79;25797;-72
2022/01/01 05:13:20;;;;;;;14.13;5.40;;;;;;;10.07;100.00;100816.74;1764612;79;99104;-72
2022/01/01 05:15:46;;;;;;;13.25;5.22;;;;;;;10.07;100.00;100805.56;1753098;80;26449;-71
2022/01/01 05:18:15;;;;;;;11.18;4.95;;;;;;;10.07;100.00;100825.64;1754823;80;26354;-71
2022/01/01 05:20:43;;;;;;;9.83;4.85;;;;;;;10.09;100.00;100822.45;1777083;78;99093;-71
2022/01/01 05:23:09;;;;;;;8.38;4.45;;;;;;;10.11;100.00;100828.20;1778071;78;25777;-72
2022/01/01 05:25:38;;;;;;;11.22;4.95;;;;;;;10.09;100.00;100837.17;1781316;78;98898;-71
2022/01/01 05:28:04;;;;;;;10.40;4.37;;;;;;;10.12;100.00;100829.48;1785429;79;25761;-72
2022/01/01 05:30:32;;;;;;;14.35;4.90;;;;;;;10.11;100.00;100829.08;1779301;79;99166;-72
2022/01/01 05:32:59;;;;;;;7.12;4.65;;;;;;;10.10;100.00;100836.70;1756086;79;28138;-71
2022/01/01 05:35:28;;;;;;;10.93;6.08;;;;;;;10.09;100.00;100836.30;1760712;79;26396;-72
2022/01/01 05:37:53;;;;;;;11.55;4.58;;;;;;;10.10;100.00;100850.10;1751220;79;99089;-73
2022/01/01 05:40:23;;;;;;;11.97;5.47;;;;;;;10.10;100.00;100850.10;1761456;79;27817;-73
2022/01/01 05:42:51;;;;;;;9.15;4.87;;;;;;;10.08;100.00;100847.48;1749162;79;99195;-73
2022/01/01 05:45:20;;;;;;;12.68;6.12;;;;;;;10.08;100.00;100848.82;1756948;79;27505;-73
2022/01/01 05:47:46;;;;;;;14.80;6.03;;;;;;;10.08;100.00;100861.34;1763529;79;25857;-73
2022/01/01 05:50:12;;;;;;;13.20;5.37;;;;;;;10.08;100.00;100850.16;1766112;79;99197;-73
2022/01/01 05:52:41;;;;;;;11.80;5.25;;;;;;;10.12;100.00;100851.38;1773387;79;26284;-74
2022/01/01 05:55:08;;;;;;;14.60;5.47;;;;;;;10.13;100.00;100859.83;1758196;79;99304;-73
2022/01/01 05:57:34;;;;;;;13.22;5.50;;;;;;;10.12;100.00;100860.75;1751107;80;27464;-73
2022/01/01 06:00:02;;;;;;;8.05;4.80;;;;;;;10.13;100.00;100859.83;1752455;80;25805;-73
2022/01/01 06:02:27;;;;;;;12.43;5.78;;;;;;;10.13;100.00;100856.68;1771256;79;98930;-72
2022/01/01 06:04:53;;;;;;;8.90;5.47;;;;;;;10.13;100.00;100861.16;1777210;79;25867;-72
2022/01/01 06:07:19;;;;;;;13.40;5.08;;;;;;;10.15;100.00;100866.00;1770731;79;98965;-70
2022/01/01 06:09:47;;;;;;;11.25;5.25;;;;;;;10.15;100.00;100864.19;1783336;78;27521;-70
2022/01/01 06:12:12;;;;;;;10.20;5.28;;;;;;;10.13;100.00;100872.75;1775258;79;25766;-70
2022/01/01 06:14:38;;;;;;;10.43;5.00;;;;;;;10.14;100.00;100876.30;1740981;80;99097;-70
2022/01/01 06:17:04;;;;;;;11.57;4.83;;;;;;;10.16;100.00;100890.51;1750873;79;25777;-69
2022/01/01 06:19:30;;;;;;;10.23;4.47;;;;;;;10.14;100.00;100892.38;1752098;80;99418;-69
2022/01/01 06:21:56;;;;;;;10.63;4.92;;;;;;;10.15;100.00;100895.46;1753296;80;28085;-69
2022/01/01 06:24:21;;;;;;;7.78;4.17;;;;;;;10.14;100.00;100889.70;1751435;80;25809;-69
2022/01/01 06:26:47;;;;;;;12.50;4.15;;;;;;;10.13;100.00;100902.22;1773458;78;98971;-69
2022/01/01 06:29:13;;;;;;;8.98;4.55;;;;;;;10.12;100.00;100896.91;1780976;78;25849;-69
2022/01/01 06:31:41;;;;;;;9.80;3.87;;;;;;;10.09;100.00;100899.24;1770458;78;99257;-69
2022/01/01 06:34:08;;;;;;;8.55;3.62;;;;;;;10.04;100.00;100899.41;1760407;79;27427;-70
2022/01/01 06:36:34;;;;;;;16.15;4.08;;;;;;;10.04;100.00;100904.77;1749065;79;99080;-69
2022/01/01 06:39:00;;;;;;;11.50;4.37;;;;;;;10.05;100.00;100915.02;1785292;78;25756;-70
2022/01/01 06:41:27;;;;;;;7.35;3.52;;;;;;;10.04;100.00;100905.23;1780307;78;27984;-70
2022/01/01 06:43:53;;;;;;;10.65;4.25;;;;;;;10.02;100.00;100922.70;1727298;80;98888;-70
2022/01/01 06:46:19;;;;;;;11.68;3.65;;;;;;;10.02;100.00;100916.47;1741719;80;28050;-70
2022/01/01 06:48:45;;;;;;;13.15;4.15;;;;;;;10.02;100.00;100920.48;1737592;80;99249;-70
2022/01/01 06:51:15;;;;;;;11.53;3.90;;;;;;;10.04;100.00;100930.20;1737459;80;26326;-70
2022/01/01 06:53:42;;;;;;;9.80;4.35;;;;;;;10.04;100.00;100932.89;1742419;80;26480;-70
2022/01/01 06:56:10;;;;;;;10.68;4.25;;;;;;;10.01;100.00;100923.62;1740146;80;98801;-70
2022/01/01 06:58:38;;;;;;;13.08;4.15;;;;;;;10.01;100.00;100928.98;1744183;81;27401;-70
2022/01/01 07:01:07;;;;;;;11.28;4.30;;;;;;;10.02;100.00;100933.88;1738492;80;99219;-70
2022/01/01 07:03:34;;;;;;;7.95;3.83;;;;;;;10.01;100.00;100938.82;1734714;80;25903;-71
2022/01/01 07:06:04;;;;;;;9.23;3.92;;;;;;;10.01;100.00;100948.19;1731595;81;26494;-71
2022/01/01 07:08:30;;;;;;;8.53;4.35;;;;;;;10.00;100.00;100963.85;1768946;79;99284;-70
2022/01/01 07:10:56;;;;;;;10.90;4.12;;;;;;;9.92;100.00;100937.81;1781690;79;27400;-70
2022/01/01 07:13:22;;;;;;;8.45;3.67;;;;;;;9.97;100.00;100946.09;1782651;78;99003;-69
2022/01/01 07:15:48;;;;;;;10.70;3.95;;;;;;;9.94;100.00;100961.39;1780667;79;25787;-70
2022/01/01 07:18:17;;;;;;;11.30;4.00;;;;;;;9.92;100.00;100955.22;1782367;79;25804;-70
2022/01/01 07:20:43;;;;;;;10.45;4.60;;;;;;;9.91;100.00;100969.53;1737264;80;99101;-70
2022/01/01 07:23:11;;;;;;;10.65;3.55;;;;;;;9.89;100.00;100974.94;1744857;80;27430;-71
2022/01/01 07:25:37;;;;;;;7.58;3.62;;;;;;;9.89;100.00;100960.22;1741357;81;98883;-70
2022/01/01 07:28:03;;;;;;;6.12;3.90;;;;;;;9.89;100.00;100964.70;1739430;81;25819;-70
2022/01/01 07:30:32;;;;;;;12.07;4.60;;;;;;;9.88;100.00;100966.50;1750627;80;26521;-71
2022/01/01 07:32:58;;;;;;;9.08;4.53;;;;;;;9.88;100.00;100968.30;1748457;80;98859;-70
2022/01/01 07:35:25;;;;;;;10.63;3.95;;;;;;;9.86;100.00;100975.05;1719979;82;27398;-71
2022/01/01 07:37:53;;;;;;;9.85;4.20;;;;;;;9.86;100.00;100973.71;1722252;81;98902;-70
2022/01/01 07:40:20;;;;;;;9.23;4.42;;;;;;;9.87;100.00;100986.63;1726715;81;25915;-70
2022/01/01 07:42:49;;;;;;;10.08;3.60;;;;;;;9.84;100.00;100978.25;1718351;81;98859;-70
2022/01/01 07:45:17;;;;;;;8.93;3.80;;;;;;;9.88;100.00;100985.70;1749502;79;25744;-70
2022/01/01 07:47:44;;;;;;;5.55;3.77;;;;;;;9.89;100.00;100984.31;1720890;81;26166;-70
2022/01/01 07:50:11;;;;;;;7.95;3.40;;;;;;;9.87;100.00;100994.20;1718185;81;98732;-70
2022/01/01 07:52:39;;;;;;;11.50;4.37;;;;;;;9.88;100.00;101006.66;1756540;79;25837;-70
2022/01/01 07:55:11;;;;;;;7.47;3.47;;;;;;;9.88;100.00;100993.27;1750107;79;99277;-70
2022/01/01 07:57:39;;;;;;;7.60;3.33;;;;;;;9.89;100.00;101015.11;1751372;79;26241;-70
2022/01/01 08:00:07;;;;;;;10.58;3.67;;;;;;;9.91;100.00;101013.72;1752590;79;27544;-70
2022/01/01 08:02:43;;;;;;;10.70;3.55;;;;;;;9.89;100.00;101012.42;1751713;79;98941;-70
2022/01/01 08:05:14;;;;;;;8.65;3.30;;;;;;;9.89;100.00;101016.91;1748890;79;25796;-70
2022/01/01 08:07:40;;;;;;;7.10;3.42;;;;;;;9.89;100.00;101022.27;1750325;79;98775;-69
2022/01/01 08:10:08;;;;;;;7.37;3.27;;;;;;;9.87;100.00;101022.31;1748538;79;25698;-70
2022/01/01 08:12:34;;;;;;;12.63;4.22;;;;;;;9.85;100.00;101023.30;1748951;79;28034;-70
2022/01/01 08:15:03;;;;;;;12.25;4.12;;;;;;;9.83;100.00;101026.02;1751894;79;98573;-71
2022/01/01 08:17:31;;;;;;;10.85;3.60;;;;;;;9.84;100.00;101032.25;1754170;79;25744;-71
2022/01/01 08:19:58;;;;;;;10.90;4.00;;;;;;;9.82;100.00;101041.67;1750808;79;98910;-71
2022/01/01 08:22:27;;;;;;;19.07;4.28;;;;;;;9.83;100.00;101047.91;1755696;79;25791;-71
2022/01/01 08:24:55;;;;;;;9.13;4.30;;;;;;;9.82;100.00;101042.14;1752180;79;98962;-71
2022/01/01 08:27:24;;;;;;;7.12;4.10;;;;;;;9.82;100.00;101058.20;1755092;79;25564;-72
2022/01/01 08:29:51;;;;;;;10.43;3.92;;;;;;;9.82;100.00;101044.35;1745351;79;25636;-72
2022/01/01 08:32:20;;;;;;;13.70;4.22;;;;;;;9.78;100.00;101046.72;1757333;79;98894;-72
2022/01/01 08:34:52;;;;;;;14.43;4.78;;;;;;;9.78;100.00;101057.89;1755966;79;25540;-72
2022/01/01 08:37:20;;;;;;;15.03;4.55;;;;;;;9.75;100.00;101065.56;1752035;79;99047;-71
2022/01/01 08:39:48;;;;;;;7.25;4.00;;;;;;;9.75;100.00;101061.55;1757779;79;25908;-72
2022/01/01 08:42:15;;;;;;;15.65;5.20;;;;;;;9.73;100.00;101062.06;1770723;79;25983;-71
2022/01/01 08:44:41;;;;;;;13.55;5.12;;;;;;;9.73;100.00;101051.36;1779030;78;98892;-71
2022/01/01 08:47:08;;;;;;;13.78;5.95;;;;;;;9.72;100.00;101057.64;1782644;78;25729;-71
2022/01/01 08:49:37;;;;;;;16.00;5.62;;;;;;;9.71;100.00;101059.44;1781178;78;99414;-74
2022/01/01 08:52:04;;;;;;;16.42;5.80;;;;;;;9.71;100.00;101061.23;1779330;79;25929;-71
2022/01/01 08:54:30;;;;;;;9.10;4.85;;;;;;;9.71;100.00;101067.93;1781727;79;26238;-71
2022/01/01 08:56:57;;;;;;;19.73;5.10;;;;;;;9.71;100.00;101075.96;1740982;80;98840;-69
2022/01/01 08:59:23;;;;;;;13.00;4.62;;;;;;;9.70;100.00;101074.21;1744100;80;26327;-70
2022/01/01 09:01:49;;;;;;;15.58;5.37;;;;;;;9.69;100.00;101087.18;1781058;78;98812;-72
2022/01/01 09:04:17;;;;;;;10.63;4.75;;;;;;;9.67;100.00;101083.22;1787382;78;26438;-72
2022/01/01 09:06:44;;;;;;;13.22;6.00;;;;;;;9.67;100.00;101087.69;1776946;78;25507;-70
2022/01/01 09:09:10;;;;;;;17.82;6.10;;;;;;;9.69;100.00;101089.39;1786791;78;26162;-71
2022/01/01 09:11:37;;;;;;;12.40;5.20;;;;;;;9.70;100.00;101094.28;1779617;78;25729;-72
2022/01/01 09:14:04;;;;;;;22.05;6.90;;;;;;;9.69;100.00;101100.10;1744452;80;98865;-72
2022/01/01 09:16:31;;;;;;;15.98;5.67;;;;;;;9.73;100.00;101098.20;1781092;78;25508;-73
2022/01/01 09:18:57;;;;;;;15.58;6.12;;;;;;;9.72;100.00;101093.77;1773927;78;99856;-72
2022/01/01 09:21:27;;;;;;;18.75;6.00;;;;;;;9.74;100.00;101098.61;1783612;78;25845;-73
2022/01/01 09:23:54;;;;;;;14.95;4.78;;;;;;;9.75;100.00;101108.39;1777146;78;25853;-72
2022/01/01 09:26:21;;;;;;;14.23;4.75;;;;;;;9.75;100.00;101100.36;1780980;78;98957;-72
2022/01/01 09:28:47;;;;;;;9.93;4.80;;;;;;;9.76;100.00;101106.13;1778408;78;26472;-73
2022/01/01 09:31:13;;;;;;;15.68;5.50;;;;;;;9.76;100.00;101109.69;1740667;80;98922;-74
2022/01/01 09:33:39;;;;;;;11.20;4.47;;;;;;;9.76;100.00;101111.02;1734578;80;25870;-75
2022/01/01 09:36:09;;;;;;;16.65;4.62;;;;;;;9.78;100.00;101112.31;1738368;80;25793;-74
2022/01/01 09:38:36;;;;;;;10.55;4.58;;;;;;;9.76;100.00;101116.38;1773793;79;98923;-76
2022/01/01 09:41:05;;;;;;;13.58;4.70;;;;;;;9.78;100.00;101127.03;1778940;78;25744;-72
2022/01/01 09:43:33;;;;;;;13.45;4.50;;;;;;;9.76;100.00;101122.19;1778298;78;99186;-72
2022/01/01 09:46:07;;;;;;;7.10;4.62;;;;;;;9.75;100.00;101124.45;1775341;78;25805;-74
2022/01/01 09:48:34;;;;;;;9.78;5.15;;;;;;;9.76;100.00;101119.52;1777539;79;25770;-73
2022/01/01 09:51:06;;;;;;;13.83;5.12;;;;;;;9.77;100.00;101125.28;1777236;79;98785;-70
2022/01/01 09:53:34;;;;;;;15.75;5.47;;;;;;;9.78;100.00;101127.03;1790673;78;25878;-70
2022/01/01 09:56:05;;;;;;;11.93;4.70;;;;;;;9.80;100.00;101126.98;1781153;78;98899;-71
2022/01/01 09:58:38;;;;;;;21.30;5.33;;;;;;;9.80;100.00;101133.68;1781215;79;26372;-71
2022/01/01 10:01:06;;;;;;;11.88;5.53;;;;;;;9.79;100.00;101143.98;1750159;79;99077;-71
2022/01/01 10:03:52;;;;;;;10.00;4.78;;;;;;;9.80;100.00;101143.05;1777607;78;27445;-70
2022/01/01 10:06:22;;;;;;;15.53;5.15;;;;;;;9.82;100.00;101138.52;1771112;79;25916;-71
2022/01/01 10:09:03;;;;;;;11.85;4.92;;;;;;;9.84;100.00;101142.90;1774404;78;98915;-71
2022/01/01 10:11:33;;;;;;;15.43;5.47;;;;;;;9.85;100.00;101141.10;1781228;79;25788;-72
2022/01/01 10:14:09;;;;;;;9.55;4.45;;;;;;;9.85;100.00;101143.78;1779442;78;98894;-71
2022/01/01 10:16:45;;;;;;;20.12;5.15;;;;;;;9.84;100.00;101153.61;1744016;80;26800;-73
2022/01/01 10:19:13;;;;;;;12.63;5.83;;;;;;;9.85;100.00;101166.07;1726965;81;99343;-73
2022/01/01 10:21:41;;;;;;;17.98;5.90;;;;;;;9.86;100.00;101168.28;1736126;80;25690;-71
2022/01/01 10:24:13;;;;;;;12.82;5.40;;;;;;;9.86;100.00;101170.97;1738204;80;25757;-72
2022/01/01 10:29:29;;;;;;;14.65;5.05;;;;;;;9.84;100.00;101175.03;1780310;78;27399;-73
2022/01/01 10:32:14;;;;;;;22.10;6.33;;;;;;;9.82;100.00;101172.86;1777121;78;98933;-72
2022/01/01 10:34:48;;;;;;;13.35;5.58;;;;;;;9.83;100.00;101183.11;1786547;78;25910;-74
2022/01/01 10:37:17;;;;;;;17.62;6.03;;;;;;;9.83;100.00;101189.34;1776160;79;98313;-73
2022/01/01 10:39:54;;;;;;;11.88;5.70;;;;;;;9.82;100.00;101190.27;1783922;78;25826;-76
2022/01/01 10:42:24;;;;;;;16.07;5.22;;;;;;;9.81;100.00;101189.85;1777822;78;27486;-72
2022/01/01 10:44:56;;;;;;;11.95;4.58;;;;;;;9.80;100.00;101188.56;1722525;82;99005;-74
2022/01/01 10:47:30;;;;;;;15.95;4.83;;;;;;;9.77;100.00;101188.20;1755170;80;25772;-76
2022/01/01 10:52:45;;;;;;;20.23;6.15;;;;;;;9.79;100.00;101193.50;1752125;80;25963;-76
2022/01/01 10:55:17;;;;;;;14.60;6.03;;;;;;;9.78;100.00;101199.31;1746811;80;99158;-74
2022/01/01 10:57:55;;;;;;;16.15;6.03;;;;;;;9.79;100.00;101199.73;1753328;80;26454;-74
2022/01/01 11:00:25;;;;;;;20.97;5.75;;;;;;;9.78;100.00;101200.66;1752138;80;26450;-75
2022/01/01 11:02:56;;;;;;;14.93;6.37;;;;;;;9.80;100.00;101205.50;1752266;80;99025;-74
2022/01/01 11:05:33;;;;;;;15.40;5.75;;;;;;;9.80;100.00;101209.52;1755274;80;25861;-74
2022/01/01 11:08:05;;;;;;;19.48;7.00;;;;;;;9.82;100.00;101208.12;1754937;80;98051;-72
2022/01/01 11:10:33;;;;;;;21.60;10.95;;;;;;;9.84;100.00;101209.84;1754626;80;26103;-73
2022/01/01 11:13:02;;;;;;;14.20;5.78;;;;;;;9.84;100.00;101207.16;1754797;80;99605;-73
2022/01/01 11:15:30;;;;;;;11.95;4.75;;;;;;;9.86;100.00;101207.11;1756090;80;26140;-76
2022/01/01 11:17:59;;;;;;;13.20;5.42;;;;;;;9.87;100.00;101216.89;1754877;80;25795;-74
2022/01/01 11:20:33;;;;;;;12.20;5.40;;;;;;;9.87;100.00;101211.08;1748027;80;99252;-75
2022/01/01 11:22:57;;;;;;;13.05;5.20;;;;;;;9.87;100.00;101214.22;1756684;80;25732;-77